Historique des mesures à Cassis (13260), France
Quotidien Résumé Mars 19, 2017 Unités:  Métrique    US   Métrique/US
« Précédent (Jour)
Suivant (Jour) »
Quotidien Hebdomadaire Mensuel Annuel Période au choix
  Maximum: Minimum: Moyenne:
Température: TemperatureC °C 13.6 °C 15.7 °C
Point de rosée: DewpointC °C 6.9 °C 8.8 °C
Humidité: Humidity % 56 % 60 %
Vitesse du vent: 0 km/h 0 km/h 7.1 km/h
Rafales: 0 km/h - -
Vent:- - South
Pression: PressurehPa hPa 1008.4 hPa -
Précipitations: 0.0 mm    
Historical Graphs
 
 
Mesures pour : Mars 19, 2017
Heure Temperature Point de rosée Pression Vent Vitesse du vent Rafales Humidité Pluie (par heure) Conditions
TemperatureC °C DewpointC °C PressurehPa hPa Calm     Humidity % HourlyPrecipMM mm SoftwareType W/m2
00:11 16.1 °C 7.8 °C 1010.0 hPa NNE 27.2 km/h 27.2 km/h 58 % 0.0 mm open2300-1.11 W/m2
01:10 15.6 °C 7.9 °C 1010.0 hPa NW 22.5 km/h 31.4 km/h 60 % 0.0 mm open2300-1.11 W/m2
02:11 15.5 °C 8.1 °C 1010.0 hPa NW 12.2 km/h 22.5 km/h 61 % 0.0 mm open2300-1.11 W/m2
03:10 14.9 °C 7.9 °C 1009.0 hPa North 23 km/h 39.4 km/h 63 % 0.0 mm open2300-1.11 W/m2
04:11 14.7 °C 7.7 °C 1008.4 hPa NNW 19.6 km/h 19.6 km/h 63 % 0.0 mm open2300-1.11 W/m2
05:10 14.8 °C 7.6 °C 1008.7 hPa NE 12.2 km/h 48.6 km/h 62 % 0.0 mm open2300-1.11 W/m2
06:11 14.5 °C 7.5 °C 1009.4 hPa Calm   4.2 km/h 63 % 0.0 mm open2300-1.11 W/m2
07:10 13.6 °C 6.9 °C 1009.7 hPa Calm     64 % 0.0 mm open2300-1.11 W/m2
08:11 13.9 °C 7.2 °C 1009.4 hPa WNW 9.3 km/h 9.3 km/h 64 % 0.0 mm open2300-1.11 W/m2
09:10 15.1 °C 7.9 °C 1009.7 hPa Calm   16.3 km/h 62 % 0.0 mm open2300-1.11 W/m2
10:11 16.1 °C 8.4 °C 1009.7 hPa North 5.6 km/h 25.4 km/h 59 % 0.0 mm open2300-1.11 W/m2
11:10 18.8 °C 10.1 °C 1010.0 hPa SSW 5.1 km/h 5.1 km/h 57 % 0.0 mm open2300-1.11 W/m2
12:11 19.8 °C 10.7 °C 1009.7 hPa SSE 7.6 km/h 8.9 km/h 56 % 0.0 mm open2300-1.11 W/m2
13:10 20.1 °C 11.3 °C 1009.4 hPa SSW 7.6 km/h 14 km/h 57 % 0.0 mm open2300-1.11 W/m2
14:11 19.6 °C 11.7 °C 1009.4 hPa West 2.3 km/h 9.8 km/h 60 % 0.0 mm open2300-1.11 W/m2
15:10 19.5 °C 11.6 °C 1009.0 hPa SSE 15.6 km/h 15.6 km/h 60 % 0.0 mm open2300-1.11 W/m2
16:11 19.0 °C 11.6 °C 1009.0 hPa Calm   5.1 km/h 62 % 0.0 mm open2300-1.11 W/m2
17:10 19.0 °C 11.1 °C 1008.7 hPa Calm   2.3 km/h 60 % 0.0 mm open2300-1.11 W/m2
18:11 17.9 °C 10.5 °C 1008.7 hPa Calm   4.7 km/h 62 % 0.0 mm open2300-1.11 W/m2
19:10 16.9 °C 10.3 °C 1009.4 hPa SE 1.8 km/h 2.3 km/h 65 % 0.0 mm open2300-1.11 W/m2
21:10 14.5 °C 9.3 °C 1009.7 hPa Calm     71 % 0.0 mm open2300-1.11 W/m2
22:11 14.1 °C 9.5 °C 1010.0 hPa Calm     74 % 0.0 mm open2300-1.11 W/m2
23:10 13.8 °C 9.6 °C 1010.4 hPa Calm     76 % 0.0 mm open2300-1.11 W/m2
Observations météo à CASSIS
WU-History script by Weather Underground - 1 mb